Time;durP1;ratioP1;P1;durP2;ratioP2;P2;SDS_P1;SDS_P2;PMS_P1;PMS_P2;Temp;Humidity;BMP_temperature;BMP_pressure;BME280_temperature;BME280_humidity;BME280_pressure;Samples;Min_cycle;Max_cycle;Signal;HPM_P1;HPM_P2
2021/10/12 00:00:42;;;;;;;4.13;1.30;;;11.90;93.80;;;;;;5017248;28;20040;-80
2021/10/12 00:03:08;;;;;;;12.07;1.80;;;11.90;93.80;;;;;;5034562;28;20393;-79
2021/10/12 00:05:34;;;;;;;8.82;1.60;;;11.90;94.00;;;;;;5034049;28;20060;-78
2021/10/12 00:08:00;;;;;;;9.80;2.08;;;11.90;93.90;;;;;;5034209;28;20117;-78
2021/10/12 00:10:25;;;;;;;5.80;1.42;;;11.90;93.90;;;;;;5033684;28;20033;-78
2021/10/12 00:12:51;;;;;;;7.65;1.52;;;11.90;94.00;;;;;;5034485;28;20080;-78
2021/10/12 00:15:17;;;;;;;10.90;2.13;;;11.80;93.90;;;;;;5033402;28;20120;-78
2021/10/12 00:17:43;;;;;;;9.00;1.33;;;11.80;94.00;;;;;;5034365;28;20541;-78
2021/10/12 00:20:09;;;;;;;10.95;1.73;;;11.80;94.10;;;;;;5034458;28;20041;-78
2021/10/12 00:22:35;;;;;;;10.13;1.63;;;11.80;94.10;;;;;;5034532;28;20032;-79
2021/10/12 00:25:02;;;;;;;8.85;1.63;;;11.80;94.10;;;;;;5034639;28;20036;-78
2021/10/12 00:27:28;;;;;;;6.63;1.38;;;11.80;94.10;;;;;;5034166;28;20044;-78
2021/10/12 00:29:53;;;;;;;9.27;1.70;;;11.80;94.30;;;;;;5034059;28;20085;-78
2021/10/12 00:32:19;;;;;;;9.77;1.43;;;11.80;94.50;;;;;;5032512;28;20516;-78
2021/10/12 00:34:45;;;;;;;6.93;1.57;;;11.70;94.60;;;;;;5034250;28;20029;-78
2021/10/12 00:37:12;;;;;;;11.70;1.60;;;11.70;94.60;;;;;;5016369;28;20026;-78
2021/10/12 00:39:39;;;;;;;10.77;1.40;;;11.70;94.80;;;;;;5033618;28;20036;-78
2021/10/12 00:42:05;;;;;;;5.78;1.23;;;11.70;94.90;;;;;;5032853;28;20069;-78
2021/10/12 00:44:32;;;;;;;7.00;1.00;;;11.70;95.10;;;;;;5033760;28;20072;-78
2021/10/12 00:46:57;;;;;;;10.82;1.65;;;11.60;95.10;;;;;;5032659;28;20481;-78
2021/10/12 00:49:23;;;;;;;7.23;1.90;;;11.60;95.00;;;;;;5033914;28;20037;-78
2021/10/12 00:51:49;;;;;;;7.07;1.60;;;11.60;95.20;;;;;;5033856;28;20056;-78
2021/10/12 00:54:15;;;;;;;9.30;1.87;;;11.60;95.20;;;;;;5033921;28;20033;-78
2021/10/12 00:56:41;;;;;;;10.48;2.10;;;11.60;95.20;;;;;;5033550;28;20539;-78
2021/10/12 00:59:07;;;;;;;12.67;1.97;;;11.60;95.10;;;;;;5032440;28;20099;-78
2021/10/12 01:01:33;;;;;;;7.50;2.57;;;11.60;95.30;;;;;;5034037;28;20120;-78
2021/10/12 01:03:59;;;;;;;8.98;2.05;;;11.50;95.20;;;;;;5015717;28;20033;-78
2021/10/12 01:06:25;;;;;;;8.60;2.13;;;11.50;95.20;;;;;;5032291;28;20147;-78
2021/10/12 01:08:51;;;;;;;9.53;2.20;;;11.50;95.30;;;;;;5032447;28;20115;-78
2021/10/12 01:11:17;;;;;;;10.17;2.00;;;11.50;95.20;;;;;;5033311;28;20087;-78
2021/10/12 01:13:42;;;;;;;6.63;2.58;;;11.50;95.20;;;;;;5032527;28;20036;-78
2021/10/12 01:16:08;;;;;;;11.63;2.75;;;11.50;95.20;;;;;;5033567;28;20029;-78
2021/10/12 01:18:36;;;;;;;7.40;2.38;;;11.60;95.20;;;;;;5033800;28;20382;-78
2021/10/12 01:21:02;;;;;;;7.80;2.50;;;11.50;95.20;;;;;;5033032;28;20021;-78
2021/10/12 01:23:28;;;;;;;5.77;1.57;;;11.50;95.20;;;;;;5032051;28;20456;-78
2021/10/12 01:25:54;;;;;;;9.60;2.40;;;11.50;95.20;;;;;;5032943;28;20037;-78
2021/10/12 01:28:19;;;;;;;8.07;2.07;;;11.50;95.30;;;;;;5031803;28;20029;-78
2021/10/12 01:30:45;;;;;;;7.30;2.35;;;11.60;95.40;;;;;;5033393;28;20026;-78
2021/10/12 01:33:11;;;;;;;8.07;2.17;;;11.50;95.30;;;;;;5032727;28;20048;-78
2021/10/12 01:35:37;;;;;;;9.60;2.22;;;11.50;95.30;;;;;;5033416;28;20029;-79
2021/10/12 01:38:03;;;;;;;10.20;2.70;;;11.50;95.30;;;;;;5031638;28;20079;-79
2021/10/12 01:40:29;;;;;;;8.30;2.08;;;11.50;95.30;;;;;;5032867;28;20507;-79
2021/10/12 01:42:57;;;;;;;12.25;2.25;;;11.50;95.30;;;;;;5046541;28;20057;-78
2021/10/12 01:45:24;;;;;;;10.03;2.20;;;11.50;95.30;;;;;;5033750;28;20030;-78
2021/10/12 01:47:51;;;;;;;11.57;3.03;;;11.50;95.30;;;;;;5031848;28;20029;-79
2021/10/12 01:50:16;;;;;;;9.73;2.70;;;11.50;95.40;;;;;;5032838;28;20155;-78
2021/10/12 01:52:42;;;;;;;9.17;2.50;;;11.50;95.40;;;;;;5031473;28;20529;-78
2021/10/12 01:55:08;;;;;;;11.53;2.60;;;11.50;95.40;;;;;;5033249;28;20029;-78
2021/10/12 01:57:34;;;;;;;12.70;2.03;;;11.40;95.40;;;;;;5031632;28;20049;-78
2021/10/12 02:00:00;;;;;;;6.00;1.93;;;11.50;95.40;;;;;;5032933;28;20036;-78
2021/10/12 02:02:25;;;;;;;9.47;2.77;;;11.50;95.50;;;;;;5032624;28;20061;-79
2021/10/12 02:04:51;;;;;;;10.80;2.50;;;11.40;96.00;;;;;;5031728;28;20104;-79
2021/10/12 02:07:17;;;;;;;11.43;2.57;;;11.40;95.70;;;;;;5048419;28;20124;-79
2021/10/12 02:09:43;;;;;;;11.67;3.90;;;11.40;95.70;;;;;;5032394;28;20030;-79
2021/10/12 02:12:09;;;;;;;10.18;2.13;;;11.40;95.80;;;;;;5032759;28;20037;-79
2021/10/12 02:14:35;;;;;;;7.10;2.43;;;11.40;95.90;;;;;;5032980;28;20036;-79
2021/10/12 02:17:01;;;;;;;10.57;2.57;;;11.40;96.00;;;;;;5033022;28;20041;-79
2021/10/12 02:19:26;;;;;;;9.80;2.57;;;11.30;96.00;;;;;;5032707;28;20026;-79
2021/10/12 02:21:52;;;;;;;14.77;2.77;;;11.30;96.10;;;;;;5032571;28;20064;-79
2021/10/12 02:24:18;;;;;;;11.83;2.30;;;11.30;96.10;;;;;;5032692;28;20397;-79
2021/10/12 02:26:44;;;;;;;13.53;2.87;;;11.30;96.10;;;;;;5031178;28;20065;-79
2021/10/12 02:29:10;;;;;;;15.47;3.10;;;11.30;96.30;;;;;;5031932;28;20104;-79
2021/10/12 02:31:36;;;;;;;10.47;2.47;;;11.30;96.20;;;;;;5033229;28;20022;-79
2021/10/12 02:34:01;;;;;;;7.00;2.17;;;11.30;96.20;;;;;;5036203;28;20048;-78
2021/10/12 02:36:27;;;;;;;5.53;1.83;;;11.20;96.30;;;;;;5034819;28;20079;-78
2021/10/12 02:38:53;;;;;;;9.73;2.03;;;11.20;96.20;;;;;;5035139;28;20041;-78
2021/10/12 02:41:19;;;;;;;9.10;2.83;;;11.20;96.20;;;;;;5036341;28;20029;-78
2021/10/12 02:43:45;;;;;;;10.67;1.50;;;11.20;96.30;;;;;;5036066;28;20025;-78
2021/10/12 02:46:11;;;;;;;9.47;2.47;;;11.30;96.20;;;;;;5035049;28;20036;-78
2021/10/12 02:48:36;;;;;;;10.30;2.57;;;11.30;96.20;;;;;;5034780;28;20413;-78
2021/10/12 02:51:02;;;;;;;7.07;1.90;;;11.30;96.10;;;;;;5035938;28;20026;-78
2021/10/12 02:53:28;;;;;;;10.27;1.50;;;11.30;96.10;;;;;;5034511;28;20041;-78
2021/10/12 02:55:53;;;;;;;8.00;1.97;;;11.30;96.10;;;;;;5018195;28;20532;-78
2021/10/12 02:58:19;;;;;;;9.80;2.03;;;11.30;96.10;;;;;;5034723;28;20052;-78
2021/10/12 03:00:45;;;;;;;6.70;1.77;;;11.30;96.10;;;;;;5051331;28;20021;-78
2021/10/12 03:03:11;;;;;;;6.30;1.33;;;11.30;96.10;;;;;;5035649;28;20025;-78
2021/10/12 03:05:42;;;;;;;8.30;1.57;;;11.30;96.20;;;;;;5050653;28;20474;-78
2021/10/12 03:08:09;;;;;;;7.47;2.03;;;11.30;96.20;;;;;;5036111;28;20031;-78
2021/10/12 03:10:34;;;;;;;12.20;1.50;;;11.30;96.20;;;;;;5034671;28;20029;-79
2021/10/12 03:13:00;;;;;;;11.07;1.60;;;11.30;96.30;;;;;;5035717;28;20099;-78
2021/10/12 03:15:25;;;;;;;7.80;1.23;;;11.20;96.30;;;;;;5035551;28;20398;-78
2021/10/12 03:17:51;;;;;;;8.23;1.40;;;11.30;96.30;;;;;;5034496;28;20038;-78
2021/10/12 03:20:19;;;;;;;7.05;1.02;;;11.20;96.40;;;;;;5017843;28;20111;-79
2021/10/12 03:22:45;;;;;;;5.80;1.07;;;11.20;96.40;;;;;;5034507;28;20033;-78
2021/10/12 03:25:10;;;;;;;11.17;1.33;;;11.20;96.40;;;;;;5035424;28;20478;-79
2021/10/12 03:27:36;;;;;;;8.80;1.77;;;11.20;96.70;;;;;;5035550;28;20026;-79
2021/10/12 03:30:03;;;;;;;10.00;1.20;;;11.20;96.60;;;;;;5035401;28;20025;-78
2021/10/12 03:32:29;;;;;;;8.73;1.67;;;11.20;96.50;;;;;;5035025;28;20037;-78
2021/10/12 03:34:54;;;;;;;6.63;1.20;;;11.20;96.50;;;;;;5033611;28;20025;-78
2021/10/12 03:37:20;;;;;;;11.80;1.30;;;11.20;96.60;;;;;;5035272;28;20154;-79
2021/10/12 03:39:45;;;;;;;6.80;1.00;;;11.20;96.60;;;;;;5035268;28;20370;-79
2021/10/12 03:42:11;;;;;;;6.43;0.80;;;11.10;96.60;;;;;;5017581;28;20481;-79
2021/10/12 03:44:37;;;;;;;4.47;1.00;;;11.10;96.60;;;;;;5016710;28;20121;-79
2021/10/12 03:47:02;;;;;;;4.50;0.97;;;11.00;96.60;;;;;;5017740;28;20036;-79
2021/10/12 03:49:28;;;;;;;5.83;1.23;;;11.10;96.70;;;;;;5034773;28;20037;-79
2021/10/12 03:51:54;;;;;;;7.97;0.90;;;11.10;96.70;;;;;;5034064;28;20038;-81
2021/10/12 03:54:19;;;;;;;7.20;0.90;;;11.10;96.60;;;;;;5034800;28;20038;-80
2021/10/12 03:56:45;;;;;;;5.43;1.17;;;11.00;96.60;;;;;;5033933;28;20044;-80
2021/10/12 03:59:11;;;;;;;6.37;0.93;;;11.00;96.70;;;;;;5034797;28;20073;-79
2021/10/12 04:01:37;;;;;;;11.13;1.37;;;11.00;96.70;;;;;;5033494;28;20432;-79
2021/10/12 04:04:03;;;;;;;6.90;1.20;;;11.00;96.70;;;;;;5016278;28;20116;-79
2021/10/12 04:06:29;;;;;;;8.07;1.20;;;11.00;96.70;;;;;;5034967;28;20026;-78
2021/10/12 04:08:55;;;;;;;8.10;0.90;;;11.00;96.70;;;;;;5034936;28;20051;-78
2021/10/12 04:11:22;;;;;;;7.47;0.90;;;11.00;96.80;;;;;;5033487;28;20136;-78
2021/10/12 04:13:48;;;;;;;5.20;1.00;;;11.00;96.70;;;;;;5034780;28;20041;-78
2021/10/12 04:16:14;;;;;;;7.40;1.07;;;11.00;96.80;;;;;;5033029;28;20521;-78
2021/10/12 04:18:40;;;;;;;8.33;0.90;;;11.00;96.70;;;;;;5034302;28;20041;-78
2021/10/12 04:21:05;;;;;;;6.32;0.80;;;11.00;96.70;;;;;;5034650;28;20029;-78
2021/10/12 04:23:31;;;;;;;8.17;1.00;;;11.00;96.70;;;;;;5033252;28;20037;-78
2021/10/12 04:25:57;;;;;;;7.67;1.13;;;11.00;96.70;;;;;;5034314;28;20531;-79
2021/10/12 04:28:23;;;;;;;10.57;1.27;;;11.00;96.60;;;;;;5033007;28;20083;-78
2021/10/12 04:30:49;;;;;;;6.47;1.00;;;11.00;96.70;;;;;;5034296;28;20025;-79
2021/10/12 04:33:15;;;;;;;4.97;1.17;;;11.00;96.80;;;;;;5032444;28;20080;-79
2021/10/12 04:35:41;;;;;;;6.70;0.80;;;11.00;97.00;;;;;;5034388;28;20037;-78
2021/10/12 04:38:07;;;;;;;6.13;0.83;;;11.00;96.80;;;;;;5032941;28;20029;-78
2021/10/12 04:40:33;;;;;;;6.67;1.10;;;11.00;96.70;;;;;;5066336;28;20079;-78
2021/10/12 04:43:06;;;;;;;10.73;1.37;;;11.00;96.70;;;;;;5051667;28;20135;-78
2021/10/12 04:45:32;;;;;;;5.45;0.93;;;11.00;96.70;;;;;;5050686;28;20104;-79
2021/10/12 04:47:58;;;;;;;8.70;1.23;;;11.00;96.80;;;;;;5051503;28;20137;-79
2021/10/12 04:50:24;;;;;;;4.07;0.93;;;11.00;96.80;;;;;;5051285;28;20118;-78
2021/10/12 04:52:50;;;;;;;11.10;1.30;;;11.00;96.90;;;;;;5053197;28;20096;-78
2021/10/12 04:55:15;;;;;;;9.17;1.23;;;11.00;96.90;;;;;;5033950;28;20029;-78
2021/10/12 04:57:41;;;;;;;5.17;1.37;;;11.00;97.00;;;;;;5051163;28;20045;-78
2021/10/12 05:00:09;;;;;;;10.23;1.10;;;11.00;97.00;;;;;;5035640;28;20120;-79
2021/10/12 05:02:34;;;;;;;6.93;1.00;;;11.00;97.20;;;;;;5051947;28;20036;-78
2021/10/12 05:05:00;;;;;;;7.57;1.43;;;11.00;97.10;;;;;;5052180;28;20043;-78
2021/10/12 05:07:26;;;;;;;6.97;1.30;;;11.00;97.10;;;;;;5052584;28;20466;-78
2021/10/12 05:09:51;;;;;;;8.50;0.93;;;11.00;97.20;;;;;;5035328;28;20025;-78
2021/10/12 05:12:17;;;;;;;6.43;1.30;;;11.00;97.20;;;;;;5053505;28;20084;-79
2021/10/12 05:14:43;;;;;;;6.33;1.20;;;11.10;97.40;;;;;;5035361;28;20485;-79
2021/10/12 05:17:46;;;;;;;8.43;1.60;;;11.00;97.40;;;;;;5052057;28;20436;-79
2021/10/12 05:20:00;;;;;;;5.37;1.67;;;11.00;97.40;;;;;;5050611;28;20064;-80
2021/10/12 05:22:26;;;;;;;13.53;2.47;;;11.00;97.50;;;;;;5052956;28;20055;-78
2021/10/12 05:24:52;;;;;;;9.07;1.87;;;11.00;97.70;;;;;;5040379;28;20033;-78
2021/10/12 05:27:17;;;;;;;12.70;2.23;;;11.00;97.70;;;;;;5046778;28;20115;-78
2021/10/12 05:29:43;;;;;;;8.17;1.93;;;11.10;97.80;;;;;;5043328;28;20063;-78
2021/10/12 05:32:09;;;;;;;8.73;2.00;;;11.00;97.70;;;;;;5050065;28;20032;-78
2021/10/12 05:34:35;;;;;;;9.23;2.20;;;11.00;97.90;;;;;;5051529;28;20029;-78
2021/10/12 05:37:01;;;;;;;8.77;2.17;;;11.00;97.90;;;;;;5034487;28;20021;-78
2021/10/12 05:39:28;;;;;;;7.67;1.97;;;11.10;98.00;;;;;;5052179;28;20025;-78
2021/10/12 05:41:55;;;;;;;11.53;2.70;;;11.00;98.00;;;;;;5011087;28;20044;-78
2021/10/12 05:44:21;;;;;;;7.03;1.73;;;11.10;98.10;;;;;;5041225;28;20155;-78
2021/10/12 05:46:46;;;;;;;8.87;2.80;;;11.00;98.00;;;;;;5040561;28;20043;-78
2021/10/12 05:49:12;;;;;;;8.70;2.90;;;11.00;98.30;;;;;;5042093;28;20033;-78
2021/10/12 05:51:38;;;;;;;10.60;2.73;;;11.10;98.40;;;;;;5034064;28;20467;-77
2021/10/12 05:54:05;;;;;;;13.83;3.20;;;11.00;98.40;;;;;;5031468;28;20418;-78
2021/10/12 05:57:35;;;;;;;9.03;2.67;;;11.00;98.30;;;;;;5015173;28;20030;-78
2021/10/12 05:59:25;;;;;;;;;;;11.00;98.20;;;;;;5036433;28;20410;-78
2021/10/12 06:01:51;;;;;;;9.17;2.50;;;11.10;98.40;;;;;;5031731;28;19905;-78
2021/10/12 06:04:17;;;;;;;14.20;3.27;;;11.10;98.40;;;;;;5031156;28;20064;-77
2021/10/12 06:06:42;;;;;;;8.67;3.33;;;11.10;98.30;;;;;;5016363;28;20025;-78
2021/10/12 06:09:10;;;;;;;9.60;3.10;;;11.10;98.40;;;;;;5045583;28;20032;-78
2021/10/12 06:11:35;;;;;;;12.77;3.80;;;11.00;98.40;;;;;;5038698;28;20036;-78
2021/10/12 06:14:01;;;;;;;9.63;3.93;;;11.10;98.40;;;;;;5053487;28;20033;-77
2021/10/12 06:16:27;;;;;;;11.43;4.50;;;11.10;98.40;;;;;;5037521;28;20025;-78
2021/10/12 06:18:52;;;;;;;9.30;5.00;;;11.10;98.60;;;;;;5056383;28;20025;-78
2021/10/12 06:21:18;;;;;;;13.83;5.50;;;11.10;98.70;;;;;;5055669;28;20102;-78
2021/10/12 06:23:43;;;;;;;9.23;4.23;;;11.20;98.70;;;;;;5055226;28;20488;-78
2021/10/12 06:26:09;;;;;;;11.63;5.27;;;11.20;98.70;;;;;;5038489;28;20499;-78
2021/10/12 06:28:35;;;;;;;13.48;6.82;;;11.20;98.70;;;;;;5056227;28;20036;-78
2021/10/12 06:31:01;;;;;;;12.50;6.93;;;11.20;98.80;;;;;;5054651;28;20023;-78
2021/10/12 06:33:26;;;;;;;12.37;6.53;;;11.20;98.70;;;;;;5055516;28;20064;-78
2021/10/12 06:35:52;;;;;;;13.47;7.17;;;11.20;98.80;;;;;;5054899;28;20063;-78
2021/10/12 06:38:18;;;;;;;13.63;6.80;;;11.30;98.80;;;;;;5055010;28;20116;-78
2021/10/12 06:40:43;;;;;;;14.27;7.82;;;11.30;98.70;;;;;;5056122;28;20380;-78
2021/10/12 06:43:10;;;;;;;12.50;7.13;;;11.30;98.80;;;;;;5056194;28;20021;-78
2021/10/12 06:45:37;;;;;;;15.77;7.90;;;11.30;98.80;;;;;;5054901;28;20112;-78
2021/10/12 06:48:03;;;;;;;17.77;9.23;;;11.30;98.70;;;;;;5054952;28;20417;-78
2021/10/12 06:50:29;;;;;;;13.90;8.55;;;11.30;98.80;;;;;;5056105;28;20509;-78
2021/10/12 06:52:55;;;;;;;13.27;7.93;;;11.40;98.70;;;;;;5056050;28;20132;-78
2021/10/12 06:55:21;;;;;;;15.77;8.00;;;11.40;98.70;;;;;;5055876;28;20111;-78
2021/10/12 06:57:47;;;;;;;15.23;8.75;;;11.40;98.70;;;;;;5037939;28;20053;-78
2021/10/12 07:00:15;;;;;;;17.33;7.30;;;11.50;98.80;;;;;;5054410;28;20531;-78
2021/10/12 07:02:41;;;;;;;14.50;7.50;;;11.40;98.70;;;;;;5054324;28;20025;-78
2021/10/12 07:05:08;;;;;;;17.10;7.50;;;11.50;98.80;;;;;;5054573;28;20033;-78
2021/10/12 07:07:34;;;;;;;11.35;6.25;;;11.50;98.90;;;;;;5055536;28;20033;-77
2021/10/12 07:10:00;;;;;;;17.30;8.23;;;11.50;98.80;;;;;;5054616;28;20036;-78
2021/10/12 07:12:26;;;;;;;15.07;6.85;;;11.60;98.90;;;;;;5054212;28;20115;-78
2021/10/12 07:14:52;;;;;;;12.10;6.70;;;11.60;98.90;;;;;;5055636;28;20017;-78
2021/10/12 07:17:18;;;;;;;14.63;6.72;;;11.70;98.80;;;;;;5055295;28;20361;-78
2021/10/12 07:19:44;;;;;;;14.18;7.18;;;11.70;98.80;;;;;;5053228;28;20025;-77
2021/10/12 07:22:10;;;;;;;12.98;6.93;;;11.80;98.80;;;;;;5053938;28;20033;-79
2021/10/12 07:24:35;;;;;;;19.15;7.75;;;11.80;98.80;;;;;;5054407;28;20029;-78
2021/10/12 07:27:01;;;;;;;15.85;7.82;;;11.80;98.80;;;;;;5055331;28;20067;-78
2021/10/12 07:29:27;;;;;;;14.95;7.93;;;11.80;98.80;;;;;;5054239;28;20438;-78
2021/10/12 07:31:53;;;;;;;17.83;7.95;;;11.90;98.80;;;;;;5054018;28;20041;-78
2021/10/12 07:34:18;;;;;;;11.73;6.95;;;11.90;98.80;;;;;;5055034;28;20037;-77
2021/10/12 07:36:44;;;;;;;17.92;8.07;;;11.90;98.80;;;;;;5054070;28;20029;-78
2021/10/12 07:39:10;;;;;;;13.43;8.35;;;11.90;98.80;;;;;;5054173;28;20100;-78
2021/10/12 07:41:36;;;;;;;15.90;8.30;;;11.90;98.80;;;;;;5055340;28;20458;-78
2021/10/12 07:44:03;;;;;;;14.18;7.70;;;12.00;98.90;;;;;;5053753;28;20112;-78
2021/10/12 07:46:29;;;;;;;15.52;8.23;;;12.00;98.90;;;;;;5053794;28;20025;-78
2021/10/12 07:48:58;;;;;;;15.50;7.25;;;12.00;98.90;;;;;;5055198;28;20036;-78
2021/10/12 07:51:30;;;;;;;13.32;6.55;;;12.00;98.90;;;;;;5053607;28;20032;-78
2021/10/12 07:53:59;;;;;;;15.55;7.97;;;12.10;98.80;;;;;;5053556;28;20064;-78
2021/10/12 07:56:37;;;;;;;16.08;7.93;;;12.10;98.90;;;;;;5054842;28;20024;-78
2021/10/12 07:59:05;;;;;;;18.08;7.53;;;12.00;98.90;;;;;;5055156;28;20126;-78
2021/10/12 08:01:32;;;;;;;13.75;7.88;;;12.10;99.00;;;;;;5054733;28;20053;-78
2021/10/12 08:03:59;;;;;;;19.70;7.85;;;12.00;99.00;;;;;;5054881;28;20461;-77
2021/10/12 08:06:25;;;;;;;15.65;6.95;;;12.00;99.00;;;;;;5036433;28;20040;-78
2021/10/12 08:08:51;;;;;;;13.55;7.45;;;12.10;99.00;;;;;;5053612;28;20017;-78
2021/10/12 08:11:17;;;;;;;15.48;8.00;;;12.10;99.10;;;;;;5053103;28;20175;-78
2021/10/12 08:13:44;;;;;;;15.05;7.90;;;12.10;99.10;;;;;;5036971;28;20041;-77
2021/10/12 08:16:10;;;;;;;13.35;7.60;;;12.10;99.10;;;;;;5053120;28;20029;-78
2021/10/12 08:18:37;;;;;;;16.40;7.88;;;12.10;99.40;;;;;;5036807;28;20128;-78
2021/10/12 08:21:02;;;;;;;12.80;7.55;;;12.20;99.20;;;;;;5036645;28;20033;-78
2021/10/12 08:23:28;;;;;;;18.50;8.20;;;12.20;99.10;;;;;;5053187;28;20116;-77
2021/10/12 08:25:54;;;;;;;14.25;8.25;;;12.20;99.10;;;;;;5036458;28;20059;-78
2021/10/12 08:28:20;;;;;;;12.25;8.40;;;12.20;99.20;;;;;;5054253;28;20025;-78
2021/10/12 08:30:45;;;;;;;16.50;9.27;;;12.20;99.20;;;;;;5053792;28;20112;-78
2021/10/12 08:33:11;;;;;;;13.55;7.63;;;12.30;99.30;;;;;;5053980;28;20036;-77
2021/10/12 08:35:37;;;;;;;15.55;8.68;;;12.30;99.30;;;;;;5054152;28;20029;-78
2021/10/12 08:38:03;;;;;;;16.40;7.35;;;12.40;99.30;;;;;;5053903;28;20049;-77
2021/10/12 08:40:31;;;;;;;13.95;8.38;;;12.30;99.30;;;;;;5036167;28;20088;-77
2021/10/12 08:42:58;;;;;;;13.65;8.70;;;12.30;99.20;;;;;;5052518;28;20116;-77
2021/10/12 08:45:24;;;;;;;14.07;7.97;;;12.40;99.10;;;;;;5053799;28;20028;-77
2021/10/12 08:47:50;;;;;;;16.42;9.00;;;12.40;99.10;;;;;;5036277;28;20037;-77
2021/10/12 08:50:22;;;;;;;20.35;10.07;;;12.30;99.10;;;;;;5053770;28;20060;-77
2021/10/12 08:52:48;;;;;;;25.63;10.85;;;12.30;99.10;;;;;;5052467;28;20037;-77
2021/10/12 08:55:15;;;;;;;19.50;10.70;;;12.30;99.00;;;;;;5053139;28;20113;-77
2021/10/12 08:57:44;;;;;;;19.70;11.38;;;12.20;99.20;;;;;;5051755;28;20053;-77
2021/10/12 09:00:15;;;;;;;19.48;11.77;;;12.20;99.30;;;;;;5053398;28;20112;-77
2021/10/12 09:05:53;;;;;;;18.55;11.38;;;12.20;99.50;;;;;;5053388;28;20037;-78
2021/10/12 09:08:42;;;;;;;21.33;10.55;;;12.20;99.70;;;;;;5051770;28;20041;-78
2021/10/12 09:11:21;;;;;;;14.73;8.60;;;12.30;99.80;;;;;;5053025;28;20064;-77
2021/10/12 09:13:49;;;;;;;21.05;10.65;;;12.30;99.80;;;;;;5053445;28;20041;-78
2021/10/12 09:16:16;;;;;;;26.75;12.25;;;12.30;99.90;;;;;;5053329;28;20021;-77
2021/10/12 09:18:58;;;;;;;20.17;11.32;;;12.30;99.90;;;;;;5052127;28;20056;-77
2021/10/12 09:21:26;;;;;;;19.77;11.52;;;12.30;99.80;;;;;;5053166;28;20075;-77
2021/10/12 09:24:05;;;;;;;21.27;11.30;;;12.30;99.90;;;;;;5052073;28;20029;-78
2021/10/12 09:26:34;;;;;;;21.17;11.68;;;12.30;99.90;;;;;;5053028;28;20033;-78
2021/10/12 09:29:23;;;;;;;22.10;12.13;;;12.30;99.90;;;;;;5052829;28;20025;-78
2021/10/12 09:31:49;;;;;;;22.52;13.40;;;12.30;99.90;;;;;;5053360;28;20116;-78
2021/10/12 09:34:17;;;;;;;22.88;12.13;;;12.40;99.90;;;;;;5052685;28;20569;-78
2021/10/12 09:36:44;;;;;;;19.90;11.45;;;12.40;99.90;;;;;;5053158;28;20056;-78
2021/10/12 09:39:17;;;;;;;19.60;11.23;;;12.40;99.90;;;;;;5053403;28;20025;-78
2021/10/12 09:41:54;;;;;;;20.55;12.20;;;12.50;99.90;;;;;;5051380;28;20028;-78
2021/10/12 09:44:19;;;;;;;18.42;11.63;;;12.50;99.90;;;;;;5053027;28;20028;-78
2021/10/12 09:46:50;;;;;;;19.80;11.40;;;12.60;99.90;;;;;;5051581;28;20025;-78
2021/10/12 09:49:24;;;;;;;19.17;10.50;;;12.70;99.90;;;;;;5052726;28;20029;-78
2021/10/12 09:52:10;;;;;;;19.70;9.70;;;12.80;99.90;;;;;;5052623;28;20082;-78
2021/10/12 09:54:38;;;;;;;15.48;7.80;;;12.90;99.90;;;;;;5053070;28;20028;-78
2021/10/12 09:57:07;;;;;;;16.02;6.80;;;13.00;99.90;;;;;;5051779;28;20446;-78
2021/10/12 09:59:34;;;;;;;13.85;6.97;;;13.10;99.90;;;;;;5052626;28;20061;-78
2021/10/12 10:02:01;;;;;;;9.55;5.03;;;13.20;99.90;;;;;;5052533;28;20488;-78
2021/10/12 10:04:28;;;;;;;10.73;3.53;;;13.70;99.90;;;;;;5051028;28;20032;-78
2021/10/12 10:07:02;;;;;;;5.90;1.95;;;14.30;99.90;;;;;;5051851;28;20365;-79
2021/10/12 10:09:29;;;;;;;5.47;1.52;;;15.00;99.90;;;;;;5052649;28;20029;-79
2021/10/12 10:11:54;;;;;;;3.53;0.90;;;15.60;99.90;;;;;;5051506;28;20083;-79
2021/10/12 10:14:20;;;;;;;6.35;1.60;;;16.00;99.90;;;;;;5053038;28;20488;-79
2021/10/12 10:16:52;;;;;;;4.97;0.98;;;16.20;99.90;;;;;;5052366;28;20068;-78
2021/10/12 10:19:23;;;;;;;4.45;1.02;;;16.30;99.90;;;;;;5053237;28;20029;-78
2021/10/12 10:21:50;;;;;;;4.70;1.40;;;16.40;99.90;;;;;;5052759;28;20036;-79
2021/10/12 10:24:56;;;;;;;4.70;0.90;;;16.40;99.90;;;;;;5052793;28;20175;-79
2021/10/12 10:27:34;;;;;;;5.18;1.23;;;16.80;99.90;;;;;;5049504;28;20515;-79
2021/10/12 10:30:23;;;;;;;2.70;0.82;;;17.10;99.70;;;;;;5051333;28;20029;-79
2021/10/12 10:32:51;;;;;;;3.35;0.80;;;17.20;98.00;;;;;;5050704;28;20029;-79
2021/10/12 10:35:38;;;;;;;6.32;0.77;;;17.10;96.80;;;;;;5052562;28;20070;-79
2021/10/12 10:38:19;;;;;;;3.90;0.68;;;16.90;96.00;;;;;;5051405;28;20035;-79
2021/10/12 10:41:12;;;;;;;3.70;0.98;;;16.80;95.40;;;;;;5052433;28;20509;-79
2021/10/12 10:44:00;;;;;;;2.42;0.50;;;16.70;95.20;;;;;;5020868;28;20083;-79
2021/10/12 10:46:32;;;;;;;2.05;0.60;;;16.60;94.40;;;;;;5052705;28;20079;-78
2021/10/12 10:49:09;;;;;;;6.50;1.00;;;16.30;93.60;;;;;;5052207;28;20067;-78
2021/10/12 10:51:51;;;;;;;4.72;0.70;;;16.10;93.50;;;;;;5051017;28;20017;-78
2021/10/12 10:54:45;;;;;;;5.68;0.90;;;15.90;93.50;;;;;;5056068;28;20067;-78
2021/10/12 10:57:22;;;;;;;3.50;0.53;;;15.70;94.20;;;;;;5055925;28;20108;-78
2021/10/12 11:00:19;;;;;;;2.33;0.52;;;15.70;94.30;;;;;;5055036;28;20131;-78
2021/10/12 11:02:48;;;;;;;5.07;0.95;;;15.80;94.40;;;;;;5054379;28;20535;-78
2021/10/12 11:05:43;;;;;;;2.78;0.50;;;15.80;93.90;;;;;;5038158;28;20040;-78
2021/10/12 11:08:09;;;;;;;;;;;15.70;93.60;;;;;;5055292;28;20036;-78
2021/10/12 11:10:36;;;;;;;3.03;0.50;;;15.50;93.30;;;;;;5055773;28;19916;-78
2021/10/12 11:13:01;;;;;;;1.98;0.50;;;15.30;93.30;;;;;;5054102;28;20041;-78
2021/10/12 11:15:27;;;;;;;0.77;0.20;;;15.20;93.60;;;;;;5055534;28;20086;-78
2021/10/12 11:18:09;;;;;;;1.30;0.20;;;15.20;94.10;;;;;;5055531;28;20032;-78
2021/10/12 11:20:44;;;;;;;3.80;0.40;;;15.50;94.60;;;;;;5054787;28;20040;-79
2021/10/12 11:23:11;;;;;;;1.27;0.20;;;15.70;94.30;;;;;;5054340;28;20477;-78
2021/10/12 11:25:38;;;;;;;1.23;0.30;;;15.80;94.00;;;;;;5055313;28;20033;-78
2021/10/12 11:28:09;;;;;;;1.73;0.28;;;15.90;93.90;;;;;;5055487;28;20096;-79
2021/10/12 11:30:36;;;;;;;2.15;0.30;;;16.00;94.00;;;;;;5055470;28;20028;-79
2021/10/12 11:33:02;;;;;;;2.65;0.35;;;16.50;94.60;;;;;;5055047;28;20037;-79
2021/10/12 11:35:38;;;;;;;0.95;0.20;;;16.80;93.90;;;;;;5037354;28;20036;-78
2021/10/12 11:38:07;;;;;;;1.42;0.30;;;17.10;93.30;;;;;;5053838;28;20048;-79
2021/10/12 11:40:35;;;;;;;1.95;0.35;;;17.40;92.80;;;;;;5055259;28;20036;-79
2021/10/12 11:43:03;;;;;;;1.27;0.38;;;17.60;92.30;;;;;;5055419;28;20059;-79
2021/10/12 11:45:30;;;;;;;2.60;0.30;;;17.90;92.30;;;;;;5055114;28;20063;-79
2021/10/12 11:47:57;;;;;;;1.58;0.30;;;18.30;91.70;;;;;;5054974;28;20487;-79
2021/10/12 11:50:23;;;;;;;0.65;0.20;;;18.60;90.90;;;;;;5053730;28;20397;-78
2021/10/12 11:52:51;;;;;;;0.57;0.10;;;18.80;90.30;;;;;;5036713;28;20033;-78
2021/10/12 11:55:22;;;;;;;1.90;0.20;;;19.00;89.00;;;;;;5054056;28;20052;-78
2021/10/12 11:57:48;;;;;;;0.75;0.20;;;19.00;86.80;;;;;;5054962;28;20056;-78
2021/10/12 12:00:15;;;;;;;1.70;0.20;;;19.00;84.80;;;;;;5053802;28;20029;-77
2021/10/12 12:02:42;;;;;;;1.75;0.20;;;18.90;83.70;;;;;;5054226;28;20021;-78
2021/10/12 12:05:10;;;;;;;0.82;0.30;;;18.70;83.00;;;;;;5053930;28;20362;-78
2021/10/12 12:07:41;;;;;;;1.67;0.20;;;18.60;81.10;;;;;;5053639;28;20051;-77
2021/10/12 12:10:09;;;;;;;1.33;0.22;;;18.30;80.60;;;;;;5053247;28;20025;-78
2021/10/12 12:12:35;;;;;;;2.42;0.30;;;18.40;81.80;;;;;;5053452;28;20086;-78
2021/10/12 12:15:03;;;;;;;1.75;0.22;;;18.90;83.80;;;;;;5054507;28;20029;-78
2021/10/12 12:17:29;;;;;;;0.75;0.17;;;19.30;82.00;;;;;;5054402;28;20091;-78
2021/10/12 12:19:57;;;;;;;3.22;0.47;;;19.50;80.00;;;;;;5054099;28;20028;-78
2021/10/12 12:22:27;;;;;;;1.30;0.30;;;19.80;79.10;;;;;;5054603;28;20032;-78
2021/10/12 12:25:02;;;;;;;1.23;0.28;;;19.80;77.50;;;;;;5054299;28;20036;-78
2021/10/12 12:27:35;;;;;;;0.98;0.20;;;19.90;76.50;;;;;;5052691;28;20032;-78
2021/10/12 12:30:02;;;;;;;0.95;0.10;;;20.00;75.80;;;;;;5054050;28;20036;-78
2021/10/12 12:32:28;;;;;;;1.33;0.22;;;20.00;74.00;;;;;;5052152;28;20048;-78
2021/10/12 12:35:00;;;;;;;1.00;0.20;;;20.00;73.20;;;;;;5052679;28;20021;-78
2021/10/12 12:37:27;;;;;;;1.85;0.22;;;19.80;72.00;;;;;;5054192;28;20032;-79
2021/10/12 12:39:53;;;;;;;1.50;0.20;;;19.70;71.30;;;;;;5050450;28;20483;-78
2021/10/12 12:42:32;;;;;;;1.17;0.20;;;19.60;71.00;;;;;;5052295;28;20108;-78
2021/10/12 12:45:15;;;;;;;1.70;0.30;;;19.60;70.80;;;;;;5052410;28;20436;-78
2021/10/12 12:47:59;;;;;;;2.70;0.28;;;19.70;70.30;;;;;;5052615;28;20021;-78
2021/10/12 12:50:33;;;;;;;4.53;0.20;;;19.70;69.50;;;;;;5053358;28;20466;-79